createdAt,value
2018-11-21T00:01:46.809Z,93.90
2018-11-21T00:04:15.840Z,93.90
2018-11-21T00:06:45.143Z,93.90
2018-11-21T00:09:14.159Z,93.90
2018-11-21T00:11:43.152Z,93.90
2018-11-21T00:14:12.152Z,93.80
2018-11-21T00:16:41.249Z,93.90
2018-11-21T00:19:10.372Z,93.90
2018-11-21T00:21:39.347Z,93.70
2018-11-21T00:24:08.376Z,93.80
2018-11-21T00:26:37.392Z,94.00
2018-11-21T00:29:06.449Z,93.70
2018-11-21T00:31:35.481Z,93.70
2018-11-21T00:34:04.520Z,93.80
2018-11-21T00:36:33.594Z,93.80
2018-11-21T00:39:02.568Z,94.00
2018-11-21T00:41:31.705Z,94.00
2018-11-21T00:44:00.661Z,93.90
2018-11-21T00:46:31.159Z,93.80
2018-11-21T00:49:00.159Z,93.90
2018-11-21T00:51:29.160Z,94.10
2018-11-21T00:53:58.217Z,94.00
2018-11-21T00:56:27.165Z,94.10
2018-11-21T00:58:56.304Z,94.30
2018-11-21T01:01:25.285Z,94.10
2018-11-21T01:03:54.261Z,94.20
2018-11-21T01:06:23.271Z,94.40
2018-11-21T01:08:52.276Z,94.40
2018-11-21T01:11:21.456Z,94.30
2018-11-21T01:13:50.461Z,94.20
2018-11-21T01:16:19.439Z,94.30
2018-11-21T01:18:48.459Z,94.10
2018-11-21T01:21:17.439Z,94.10
2018-11-21T01:23:46.446Z,94.10
2018-11-21T01:26:15.530Z,94.20
2018-11-21T01:28:44.564Z,93.80
2018-11-21T01:31:13.564Z,93.60
2018-11-21T01:33:42.543Z,93.30
2018-11-21T01:36:11.589Z,93.10
2018-11-21T01:38:40.658Z,93.20
2018-11-21T01:41:09.731Z,93.20
2018-11-21T01:43:38.717Z,92.90
2018-11-21T01:46:07.729Z,93.00
2018-11-21T01:48:36.922Z,93.40
2018-11-21T01:51:05.938Z,93.40
2018-11-21T01:53:35.252Z,93.40
2018-11-21T01:56:04.458Z,93.50
2018-11-21T01:58:33.460Z,93.60
2018-11-21T02:01:02.584Z,93.50
2018-11-21T02:03:31.584Z,93.40
2018-11-21T02:06:00.667Z,93.50
2018-11-21T02:08:29.656Z,93.60
2018-11-21T02:10:58.660Z,93.70
2018-11-21T02:13:27.716Z,93.80
2018-11-21T02:15:56.704Z,93.90
2018-11-21T02:18:25.705Z,94.40
2018-11-21T02:20:54.720Z,94.10
2018-11-21T02:23:23.790Z,94.10
2018-11-21T02:25:52.850Z,94.40
2018-11-21T02:28:21.876Z,94.40
2018-11-21T02:30:51.056Z,94.40
2018-11-21T02:33:20.065Z,94.40
2018-11-21T02:35:49.127Z,94.50
2018-11-21T02:38:18.301Z,94.60
2018-11-21T02:40:47.329Z,94.90
2018-11-21T02:43:16.372Z,94.70
2018-11-21T02:45:45.576Z,94.70
2018-11-21T02:48:14.595Z,94.70
2018-11-21T02:50:43.579Z,94.70
2018-11-21T02:53:12.757Z,95.10
2018-11-21T02:55:41.886Z,95.00
2018-11-21T02:58:13.870Z,94.80
2018-11-21T03:00:43.080Z,95.00
2018-11-21T03:03:12.107Z,95.10
2018-11-21T03:05:41.120Z,95.10
2018-11-21T03:08:10.155Z,95.20
2018-11-21T03:10:39.192Z,95.40
2018-11-21T03:13:08.267Z,95.40
2018-11-21T03:15:37.300Z,95.60
2018-11-21T03:18:06.328Z,95.70
2018-11-21T03:20:35.319Z,95.90
2018-11-21T03:23:04.352Z,95.70
2018-11-21T03:25:33.553Z,95.70
2018-11-21T03:28:02.549Z,96.00
2018-11-21T03:30:31.903Z,96.00
2018-11-21T03:33:00.905Z,96.20
2018-11-21T03:35:30.095Z,96.30
2018-11-21T03:37:59.118Z,96.50
2018-11-21T03:40:28.123Z,96.40
2018-11-21T03:42:57.159Z,96.50
2018-11-21T03:45:26.178Z,96.60
2018-11-21T03:47:55.187Z,96.70
2018-11-21T03:50:24.209Z,96.90
2018-11-21T03:52:53.220Z,97.10
2018-11-21T03:55:22.232Z,96.90
2018-11-21T03:57:51.223Z,96.70
2018-11-21T04:00:20.241Z,96.80
2018-11-21T04:02:49.219Z,96.90
2018-11-21T04:05:18.262Z,97.00
2018-11-21T04:07:47.238Z,97.20
2018-11-21T04:10:16.432Z,97.20
2018-11-21T04:12:45.469Z,97.30
2018-11-21T04:15:14.595Z,97.40
2018-11-21T04:17:43.592Z,97.60
2018-11-21T04:20:12.618Z,97.60
2018-11-21T04:22:41.687Z,97.70
2018-11-21T04:25:11.957Z,97.60
2018-11-21T04:27:41.364Z,97.50
2018-11-21T04:30:12.474Z,97.20
2018-11-21T04:32:41.768Z,97.10
2018-11-21T04:35:10.769Z,97.30
2018-11-21T04:37:39.799Z,97.20
2018-11-21T04:40:08.888Z,96.90
2018-11-21T04:42:38.343Z,96.60
2018-11-21T04:45:08.818Z,96.60
2018-11-21T04:47:37.840Z,96.30
2018-11-21T04:50:07.367Z,96.00
2018-11-21T04:52:36.408Z,96.00
2018-11-21T04:55:06.807Z,95.90
2018-11-21T04:57:36.339Z,95.90
2018-11-21T05:00:07.645Z,95.90
2018-11-21T05:02:36.663Z,95.90
2018-11-21T05:05:07.520Z,95.70
2018-11-21T05:07:36.554Z,95.80
2018-11-21T05:10:06.697Z,95.60
2018-11-21T05:12:36.100Z,95.60
2018-11-21T05:15:05.807Z,95.70
2018-11-21T05:17:34.866Z,96.20
2018-11-21T05:20:03.926Z,95.80
2018-11-21T05:22:32.966Z,95.90
2018-11-21T05:25:01.987Z,96.20
2018-11-21T05:27:31.054Z,96.30
2018-11-21T05:30:00.098Z,96.40
2018-11-21T05:32:29.092Z,96.70
2018-11-21T05:34:58.372Z,96.60
2018-11-21T05:37:27.393Z,97.10
2018-11-21T05:39:56.397Z,97.20
2018-11-21T05:42:25.416Z,97.40
2018-11-21T05:44:54.501Z,97.60
2018-11-21T05:47:23.487Z,97.80
2018-11-21T05:49:52.543Z,98.00
2018-11-21T05:52:21.561Z,97.90
2018-11-21T05:54:50.561Z,98.00
2018-11-21T05:57:19.765Z,97.80
2018-11-21T05:59:48.822Z,97.70
2018-11-21T06:02:18.287Z,97.50
2018-11-21T06:04:47.417Z,97.60
2018-11-21T06:07:16.662Z,97.80
2018-11-21T06:09:45.733Z,98.00
2018-11-21T06:12:14.759Z,98.10
2018-11-21T06:14:43.801Z,98.30
2018-11-21T06:17:13.087Z,98.40
2018-11-21T06:19:42.130Z,98.50
2018-11-21T06:22:11.161Z,98.70
2018-11-21T06:24:40.156Z,98.60
2018-11-21T06:27:09.423Z,98.60
2018-11-21T06:29:38.775Z,98.50
2018-11-21T06:32:07.816Z,98.60
2018-11-21T06:34:37.041Z,98.70
2018-11-21T06:37:06.047Z,98.60
2018-11-21T06:39:35.084Z,98.90
2018-11-21T06:42:04.095Z,99.00
2018-11-21T06:44:33.293Z,99.10
2018-11-21T06:47:02.481Z,99.30
2018-11-21T06:49:31.506Z,99.10
2018-11-21T06:52:00.700Z,98.90
2018-11-21T06:54:29.761Z,99.00
2018-11-21T06:56:58.808Z,99.00
2018-11-21T06:59:47.171Z,98.80
2018-11-21T07:02:16.239Z,98.90
2018-11-21T07:04:45.240Z,98.80
2018-11-21T07:07:14.368Z,98.90
2018-11-21T07:09:44.868Z,98.80
2018-11-21T07:12:13.908Z,98.90
2018-11-21T07:14:43.113Z,98.90
2018-11-21T07:17:12.299Z,98.70
2018-11-21T07:19:41.280Z,98.90
2018-11-21T07:22:10.305Z,98.90
2018-11-21T07:24:39.336Z,98.90
2018-11-21T07:27:08.560Z,99.30
2018-11-21T07:29:37.627Z,98.70
2018-11-21T07:32:06.663Z,98.80
2018-11-21T07:34:35.695Z,99.00
2018-11-21T07:37:04.688Z,98.90
2018-11-21T07:39:33.749Z,98.90
2018-11-21T07:42:04.107Z,98.80
2018-11-21T07:44:33.101Z,98.80
2018-11-21T07:47:02.111Z,98.70
2018-11-21T07:49:31.153Z,98.50
2018-11-21T07:52:00.173Z,98.40
2018-11-21T07:54:29.344Z,98.20
2018-11-21T07:57:31.747Z,98.00
2018-11-21T08:00:58.459Z,98.00
2018-11-21T08:03:29.235Z,97.70
2018-11-21T08:06:07.295Z,97.70
2018-11-21T08:08:55.489Z,97.60
2018-11-21T08:11:51.363Z,97.50
2018-11-21T08:14:38.223Z,97.20
2018-11-21T08:17:19.015Z,97.20
2018-11-21T08:20:07.374Z,97.00
2018-11-21T08:22:54.393Z,96.80
2018-11-21T08:25:54.701Z,96.60
2018-11-21T08:28:30.680Z,96.40
2018-11-21T08:31:00.009Z,96.10
2018-11-21T08:33:33.878Z,95.90
2018-11-21T08:35:59.288Z,95.70
2018-11-21T08:38:28.451Z,95.50
2018-11-21T08:40:57.468Z,95.40
2018-11-21T08:43:26.462Z,95.00
2018-11-21T08:45:55.558Z,94.70
2018-11-21T08:48:24.960Z,94.40
2018-11-21T08:50:54.160Z,94.40
2018-11-21T08:53:23.573Z,94.40
2018-11-21T08:55:52.562Z,94.30
2018-11-21T08:58:21.744Z,93.70
2018-11-21T09:00:50.962Z,93.50
2018-11-21T09:03:20.133Z,93.60
2018-11-21T09:05:49.182Z,92.90
2018-11-21T09:08:18.187Z,92.70
2018-11-21T09:10:47.177Z,92.70
2018-11-21T09:13:16.343Z,92.80
2018-11-21T09:15:45.857Z,92.60
2018-11-21T09:18:15.017Z,92.20
2018-11-21T09:20:44.135Z,92.40
2018-11-21T09:23:13.127Z,91.90
2018-11-21T09:25:42.175Z,91.70
2018-11-21T09:28:11.238Z,91.40
2018-11-21T09:30:40.287Z,91.40
2018-11-21T09:33:09.340Z,90.70
2018-11-21T09:35:38.364Z,89.80
2018-11-21T09:38:07.373Z,89.60
2018-11-21T09:40:36.442Z,90.00
2018-11-21T09:43:05.952Z,88.00
2018-11-21T09:45:34.983Z,87.70
2018-11-21T09:48:04.054Z,87.00
2018-11-21T09:50:33.990Z,86.30
2018-11-21T09:53:03.362Z,85.50
2018-11-21T09:55:32.418Z,86.60
2018-11-21T09:58:01.506Z,84.40
2018-11-21T10:01:07.240Z,83.80
2018-11-21T10:03:37.545Z,83.30
2018-11-21T10:06:23.886Z,84.00
2018-11-21T10:08:54.592Z,84.40
2018-11-21T10:11:23.670Z,84.00
2018-11-21T10:13:52.985Z,82.10
2018-11-21T10:16:22.048Z,81.20
2018-11-21T10:18:52.764Z,80.50
2018-11-21T10:21:23.494Z,81.50
2018-11-21T10:23:52.851Z,81.40
2018-11-21T10:26:22.054Z,79.40
2018-11-21T10:28:52.074Z,80.60
2018-11-21T10:31:21.229Z,80.10
2018-11-21T10:33:50.636Z,80.00
2018-11-21T10:36:19.706Z,80.60
2018-11-21T10:38:48.881Z,80.20
2018-11-21T10:41:17.905Z,80.50
2018-11-21T10:43:47.014Z,80.10
2018-11-21T10:46:16.087Z,80.20
2018-11-21T10:48:45.290Z,79.90
2018-11-21T10:51:15.047Z,81.10
2018-11-21T10:53:43.385Z,80.20
2018-11-21T10:56:12.608Z,80.10
2018-11-21T10:58:41.776Z,80.90
2018-11-21T11:01:24.453Z,80.20
2018-11-21T11:03:59.139Z,79.50
2018-11-21T11:06:46.231Z,78.30
2018-11-21T11:09:49.673Z,77.20
2018-11-21T11:12:37.898Z,77.60
2018-11-21T11:15:38.135Z,78.40
2018-11-21T11:18:29.329Z,78.20
2018-11-21T11:21:16.339Z,78.60
2018-11-21T11:24:12.902Z,78.50
2018-11-21T11:26:50.088Z,78.10
2018-11-21T11:29:38.359Z,77.80
2018-11-21T11:32:35.580Z,76.50
2018-11-21T11:35:22.863Z,74.40
2018-11-21T11:38:13.411Z,75.70
2018-11-21T11:41:04.681Z,74.60
2018-11-21T11:43:51.733Z,76.70
2018-11-21T11:46:52.189Z,75.40
2018-11-21T11:49:39.594Z,73.90
2018-11-21T11:52:42.968Z,73.20
2018-11-21T11:55:37.245Z,73.60
2018-11-21T11:58:25.450Z,73.20
2018-11-21T12:01:07.410Z,73.80
2018-11-21T12:03:57.813Z,72.30
2018-11-21T12:06:49.184Z,73.30
2018-11-21T12:09:49.358Z,71.30
2018-11-21T12:12:44.045Z,71.90
2018-11-21T12:15:31.206Z,71.80
2018-11-21T12:18:34.742Z,71.50
2018-11-21T12:21:22.931Z,72.70
2018-11-21T12:24:11.097Z,70.50
2018-11-21T12:27:08.539Z,71.40
2018-11-21T12:30:03.489Z,70.60
2018-11-21T12:32:50.491Z,69.70
2018-11-21T12:35:44.812Z,71.30
2018-11-21T12:38:36.180Z,68.90
2018-11-21T12:41:27.489Z,68.90
2018-11-21T12:44:14.838Z,69.20
2018-11-21T12:47:04.928Z,69.20
2018-11-21T12:49:53.171Z,68.90
2018-11-21T12:52:50.274Z,69.50
2018-11-21T12:55:50.737Z,69.30
2018-11-21T12:58:37.797Z,69.30
2018-11-21T13:01:32.217Z,70.20
2018-11-21T13:04:20.514Z,70.00
2018-11-21T13:07:11.624Z,70.00
2018-11-21T13:10:08.224Z,68.80
2018-11-21T13:13:02.480Z,70.00
2018-11-21T13:16:02.722Z,70.20
2018-11-21T13:19:06.135Z,66.70
2018-11-21T13:21:58.394Z,65.10
2018-11-21T13:24:45.837Z,65.90
2018-11-21T13:27:32.915Z,65.80
2018-11-21T13:30:24.272Z,65.20
2018-11-21T13:33:04.343Z,64.40
2018-11-21T13:35:46.027Z,64.10
2018-11-21T13:38:43.845Z,64.30
2018-11-21T13:41:32.050Z,64.70
2018-11-21T13:44:26.247Z,65.60
2018-11-21T13:47:17.395Z,66.00
2018-11-21T13:50:05.328Z,65.50
